Yutan, NE

1:34 AM CDT on October 21, 2014 (GMT -0500)
ARDC Farm/Fac Shop | Change Station
CLOSE
Current Station
Personal Weather Station
Location: Ithaca, NE
Elevation: 1170 ft
Nearby Weather Stations

Elev 1170 ft 41.18 °N, 96.47 °W | Updated 3 minutes ago

Clear
Clear
40.6 °F
Feels Like 41 °F
N
0.0
Wind Variable Wind from West
Gusts 0.0 mph

Today
High -- | Low -- °F
--% Chance of Precip.
Yesterday
High -- | Low -- °F
Precip. -- in
7:44 AM 6:35 PM
Waning Crescent, 7% visible
Pressure 30.07 in
Visibility 10.0 miles
Clouds Clear
Windchill 41 °F
Dew Point 38 °F
Humidity 90%
Rainfall 0.00 in
Snow Depth Not available.
UV 0 out of 12
Pollen 2.80 out of 12
Air Quality Not available.
Flu Activity Sporadic
METAR KAHQ 210615Z AUTO 00000KT 10SM CLR 06/02 A3007 RMK AO2 T00570024

More Conditions Fewer Conditions

Pressure 30.07 in
Visibility 10.0 miles
Clouds Clear
Windchill 41 °F
Dew Point 38 °F
Humidity 90%
Rainfall 0.00 in
Snow Depth Not available.
UV 0 out of 12
Pollen 2.80 out of 12
Air Quality Not available.
Flu Activity Sporadic
METAR KAHQ 210615Z AUTO 00000KT 10SM CLR 06/02 A3007 RMK AO2 T00570024

More Conditions Fewer Conditions

10-Day Weather Forecast

Almanac

Astronomy

Oct. 21, 2014 Rise Set
Actual Time 7:44 AM CDT 6:35 PM CDT
Civil Twilight 7:15 AM CDT 7:03 PM CDT
Nautical Twilight 6:43 AM CDT 7:35 PM CDT
Astronomical Twilight 6:11 AM CDT 8:07 PM CDT
Moon 5:28 AM CDT 5:31 PM CDT
Length of Visible Light 11h 47m
Length of Day
10h 51m
Tomorrow will be 2m 35s shorter.
Waning Crescent, 7% of the Moon is Illuminated
Today
Waning Crescent
Oct 23
New
Oct 30
First Quarter
Nov 6
Full
Nov 14
Last Quarter

Today's Extremes

State Highs State Lows

Community

WunderPhotos

Upload Photos

1,763,617 photos uploaded!

Nearby

Snow Depth

Station Depth Elevation
No new snow has been reported.

Earthquake Activity

City Distance Mag. Time & Date
No recent earthquake activity has been reported nearby.
Minimum magnitude displayed is 2.5.

Coastal Water Temperatures

Place Temperature
No Stations Reporting

Nearby Weather Stations